Portada
METAR-TAF:

METAR-TAF

Aeropuertos :

Aeropuerto de Ekaterimburgo-Koltsovo

Ekaterimburgo, Rusia

latitud: 56-50N, longitud: 060-38E, altitud: 237 m

Observación

El informe se hizo hace 30 minutos, a las 03:00 UTC
Viento 6 kt del oeste-noroeste
Temperatura -1°C
Humedad 69%
Presión 1023 hPa
Visibilidad 10 km o más
Cielo nuboso a una altura de 3100 ft

METAR: USSS 220300Z 30003MPS 9999 BKN031 M01/M06 Q1023 R26R/290035 NOSIG RMK QFE746/0995

Hora: 08:30 (03:30 UTC)

Pronóstico

El informe se hizo hace 1 hora y 25 minutos, a las 02:05 UTC
Pronóstico válido del 22 a las 03 UTC al 23 a las 03 UTC
Viento 6 kt del oeste-noroeste con ráfagas de 23 kt
Visibilidad 10 km o más
Cielo nuboso a una altura de 1100 ft
Nubes dispersas a una altura de 2000 ft, Cumulonimbus.

TAF: USSS 220205Z 2203/2303 30003G12MPS 9999 BKN011 SCT020CB

Observaciones y pronósticos meteorológicos de más de 4000 aeropuertos (mensajes METAR y TAF).

Los puntos amarillos y rojos representan las estaciones disponibles.

Ponga el ratón en el punto deseado para ver el nombre de la estación.

Haga clic para ver las observaciones y los pronósticos meteorológicos.

Para cambiar el mapa : haga clic en los botones verdes con una cruz de color negro para hacer un zoom, en el botón verde con un guión para alejar o en las flechas verdes para mapas adyacentes.


METAR-TAF: